Time;durP1;ratioP1;P1;durP2;ratioP2;P2;SDS_P1;SDS_P2;PMS_P1;PMS_P2;Temp;Humidity;BMP_temperature;BMP_pressure;BME280_temperature;BME280_humidity;BME280_pressure;Samples;Min_cycle;Max_cycle;Signal;HPM_P1;HPM_P2
2023/09/27 00:00:09;;;;;;;17.02;10.07;;;11.80;99.20;;;;;;4985413;28;20062;-73
2023/09/27 00:02:41;;;;;;;13.15;8.55;;;11.80;99.30;;;;;;4985022;28;20638;-73
2023/09/27 00:05:10;;;;;;;14.93;8.35;;;11.80;99.30;;;;;;4988395;28;20057;-73
2023/09/27 00:07:41;;;;;;;12.57;8.25;;;11.70;98.80;;;;;;4977269;28;20054;-73
2023/09/27 00:10:11;;;;;;;11.15;7.72;;;11.70;99.00;;;;;;4967340;28;20129;-73
2023/09/27 00:12:40;;;;;;;12.43;7.70;;;11.60;99.00;;;;;;4968153;28;20554;-73
2023/09/27 00:15:11;;;;;;;12.57;8.55;;;11.60;99.30;;;;;;4969094;28;20542;-73
2023/09/27 00:17:39;;;;;;;13.00;8.52;;;11.60;99.10;;;;;;4981371;28;20529;-73
2023/09/27 00:20:13;;;;;;;12.52;8.20;;;11.60;99.10;;;;;;4984964;28;20050;-73
2023/09/27 00:22:40;;;;;;;13.75;8.60;;;11.50;99.00;;;;;;4970055;28;20050;-73
2023/09/27 00:25:09;;;;;;;14.88;8.82;;;11.50;99.30;;;;;;4985075;28;20459;-73
2023/09/27 00:27:37;;;;;;;14.98;9.18;;;11.50;99.30;;;;;;4969521;28;20088;-73
2023/09/27 00:30:07;;;;;;;17.15;8.75;;;11.40;99.40;;;;;;4960630;28;20129;-73
2023/09/27 00:32:34;;;;;;;12.57;8.80;;;11.40;99.80;;;;;;4982921;28;20068;-73
2023/09/27 00:35:02;;;;;;;14.45;9.13;;;11.40;99.70;;;;;;4983565;28;20142;-73
2023/09/27 00:37:32;;;;;;;14.70;9.80;;;11.40;99.70;;;;;;4983423;28;20050;-73
2023/09/27 00:39:59;;;;;;;14.00;9.05;;;11.30;99.70;;;;;;4967903;28;20050;-73
2023/09/27 00:42:26;;;;;;;13.30;8.85;;;11.30;99.60;;;;;;4971623;28;20049;-73
2023/09/27 00:44:53;;;;;;;17.45;8.82;;;11.30;100.00;;;;;;4988754;28;20101;-73
2023/09/27 00:47:21;;;;;;;15.82;9.48;;;11.30;100.00;;;;;;4987482;28;20213;-74
2023/09/27 00:49:53;;;;;;;16.40;9.55;;;11.30;100.00;;;;;;4983455;28;20050;-73
2023/09/27 00:52:20;;;;;;;23.92;9.18;;;11.30;100.00;;;;;;4983824;28;20746;-73
2023/09/27 00:54:47;;;;;;;13.57;8.85;;;11.30;100.00;;;;;;4966198;28;20521;-73
2023/09/27 00:57:14;;;;;;;12.43;8.77;;;11.30;100.00;;;;;;4984633;28;20141;-73
2023/09/27 00:59:41;;;;;;;11.00;8.43;;;11.20;99.70;;;;;;4967428;28;20050;-73
2023/09/27 01:02:09;;;;;;;11.90;8.15;;;11.20;99.60;;;;;;4985896;28;20138;-73
2023/09/27 01:04:37;;;;;;;10.82;7.55;;;11.20;99.90;;;;;;4968275;28;20046;-73
2023/09/27 01:07:08;;;;;;;13.07;8.93;;;11.10;99.70;;;;;;4986359;28;20530;-74
2023/09/27 01:09:37;;;;;;;11.63;7.78;;;11.00;99.60;;;;;;4983792;28;20072;-70
2023/09/27 01:12:05;;;;;;;11.27;8.10;;;11.00;99.90;;;;;;4985806;28;20053;-70
2023/09/27 01:14:31;;;;;;;12.35;7.18;;;11.00;99.90;;;;;;4985902;28;20050;-70
2023/09/27 01:17:09;;;;;;;12.45;7.63;;;11.00;100.00;;;;;;4988128;28;20046;-70
2023/09/27 01:19:38;;;;;;;9.45;7.43;;;11.00;100.00;;;;;;4971919;28;20042;-70
2023/09/27 01:22:05;;;;;;;13.95;7.85;;;11.00;99.90;;;;;;4989003;28;20492;-70
2023/09/27 01:24:38;;;;;;;10.43;6.85;;;11.00;100.00;;;;;;4975900;28;20049;-70
2023/09/27 01:27:09;;;;;;;10.77;7.47;;;11.00;100.00;;;;;;4989430;28;20054;-70
2023/09/27 01:29:36;;;;;;;11.15;7.10;;;11.00;99.70;;;;;;4988955;28;20447;-70
2023/09/27 01:32:03;;;;;;;14.00;8.45;;;11.00;100.00;;;;;;4989346;28;20074;-70
2023/09/27 01:34:30;;;;;;;12.18;7.78;;;11.00;100.00;;;;;;4988241;28;20046;-70
2023/09/27 01:36:57;;;;;;;11.82;7.85;;;11.00;100.00;;;;;;4988367;28;20568;-70
2023/09/27 01:39:24;;;;;;;12.88;7.80;;;11.00;99.80;;;;;;4971176;28;20042;-70
2023/09/27 01:41:51;;;;;;;10.55;7.47;;;10.90;99.90;;;;;;4987983;28;20467;-70
2023/09/27 01:44:18;;;;;;;11.27;8.23;;;10.90;100.00;;;;;;4970696;28;20186;-70
2023/09/27 01:46:45;;;;;;;13.13;8.32;;;10.90;100.00;;;;;;4987494;28;20138;-70
2023/09/27 01:49:12;;;;;;;27.05;8.68;;;10.90;100.00;;;;;;4988394;28;20054;-70
2023/09/27 01:51:39;;;;;;;14.20;8.55;;;11.00;100.00;;;;;;4988057;28;20100;-70
2023/09/27 01:54:06;;;;;;;13.32;8.48;;;11.00;100.00;;;;;;4987960;28;20506;-70
2023/09/27 01:56:33;;;;;;;18.05;8.15;;;10.90;100.00;;;;;;4988089;28;20047;-70
2023/09/27 01:59:00;;;;;;;17.23;9.02;;;10.90;100.00;;;;;;4975675;28;20109;-70
2023/09/27 02:01:27;;;;;;;15.60;8.95;;;10.90;100.00;;;;;;4987847;28;20046;-70
2023/09/27 02:03:53;;;;;;;15.18;9.40;;;10.90;100.00;;;;;;4969732;28;20815;-70
2023/09/27 02:06:22;;;;;;;15.27;8.75;;;10.90;100.00;;;;;;4970630;28;20423;-70
2023/09/27 02:08:51;;;;;;;13.75;8.63;;;10.90;100.00;;;;;;4971347;28;20058;-70
2023/09/27 02:11:25;;;;;;;17.65;9.43;;;10.80;100.00;;;;;;4975228;28;20050;-70
2023/09/27 02:13:53;;;;;;;17.83;9.10;;;10.80;100.00;;;;;;4969586;28;20177;-70
2023/09/27 02:16:20;;;;;;;16.77;8.93;;;10.80;100.00;;;;;;4987464;28;20498;-70
2023/09/27 02:18:49;;;;;;;16.10;8.85;;;10.80;100.00;;;;;;4968800;28;20042;-70
2023/09/27 02:21:16;;;;;;;13.55;9.40;;;10.80;100.00;;;;;;4968902;28;20042;-70
2023/09/27 02:23:42;;;;;;;16.05;9.65;;;10.80;100.00;;;;;;4984924;28;20058;-70
2023/09/27 02:26:10;;;;;;;14.90;9.48;;;10.80;100.00;;;;;;4989830;28;20050;-70
2023/09/27 02:28:36;;;;;;;16.65;9.55;;;10.80;100.00;;;;;;4985915;28;20047;-70
2023/09/27 02:31:10;;;;;;;14.52;8.70;;;10.80;100.00;;;;;;4987666;28;20054;-70
2023/09/27 02:33:38;;;;;;;16.05;9.68;;;10.70;100.00;;;;;;4988722;28;20084;-70
2023/09/27 02:36:06;;;;;;;16.70;9.50;;;10.80;100.00;;;;;;4971371;28;20100;-70
2023/09/27 02:38:37;;;;;;;13.32;9.30;;;10.70;100.00;;;;;;4971870;28;20050;-70
2023/09/27 02:41:04;;;;;;;16.15;8.77;;;10.70;100.00;;;;;;4985532;28;20050;-70
2023/09/27 02:43:31;;;;;;;15.73;9.25;;;10.70;100.00;;;;;;4991007;28;20046;-70
2023/09/27 02:45:58;;;;;;;16.98;9.13;;;10.60;100.00;;;;;;4970980;28;20125;-70
2023/09/27 02:48:25;;;;;;;17.88;8.68;;;10.60;100.00;;;;;;4971675;28;20058;-70
2023/09/27 02:50:53;;;;;;;14.43;9.18;;;10.60;100.00;;;;;;4987215;28;20375;-70
2023/09/27 02:53:21;;;;;;;13.75;8.93;;;10.60;100.00;;;;;;4970915;28;20089;-70
2023/09/27 02:55:49;;;;;;;13.75;9.32;;;10.60;100.00;;;;;;4971335;28;20058;-70
2023/09/27 02:58:16;;;;;;;15.18;9.00;;;10.50;100.00;;;;;;4987845;28;20086;-70
2023/09/27 03:00:43;;;;;;;16.98;10.13;;;10.50;100.00;;;;;;4986573;28;20046;-70
2023/09/27 03:03:10;;;;;;;15.77;8.95;;;10.50;100.00;;;;;;4972296;28;20109;-70
2023/09/27 03:05:39;;;;;;;15.13;8.75;;;10.50;100.00;;;;;;4967994;28;20511;-70
2023/09/27 03:08:07;;;;;;;27.40;9.60;;;10.50;100.00;;;;;;4969537;28;20053;-70
2023/09/27 03:10:41;;;;;;;22.30;9.10;;;10.50;100.00;;;;;;4967503;28;20064;-70
2023/09/27 03:13:09;;;;;;;17.30;8.02;;;10.50;100.00;;;;;;4987219;28;20053;-70
2023/09/27 03:15:36;;;;;;;15.15;9.32;;;10.40;100.00;;;;;;4973472;28;20042;-70
2023/09/27 03:18:04;;;;;;;15.07;8.60;;;10.40;100.00;;;;;;4985630;28;20257;-70
2023/09/27 03:20:31;;;;;;;17.08;10.35;;;10.40;100.00;;;;;;4984608;28;20050;-70
2023/09/27 03:22:59;;;;;;;19.80;12.30;;;10.40;100.00;;;;;;4989398;28;20061;-70
2023/09/27 03:25:26;;;;;;;22.08;13.05;;;10.30;100.00;;;;;;4985631;28;20081;-70
2023/09/27 03:27:54;;;;;;;22.17;13.07;;;10.40;100.00;;;;;;4975644;28;20054;-70
2023/09/27 03:30:21;;;;;;;24.45;11.68;;;10.40;100.00;;;;;;4986352;28;20490;-70
2023/09/27 03:32:48;;;;;;;18.15;11.63;;;10.30;100.00;;;;;;4968036;28;20050;-70
2023/09/27 03:35:16;;;;;;;65.97;13.65;;;10.30;100.00;;;;;;4963527;28;20478;-70
2023/09/27 03:37:44;;;;;;;31.80;11.50;;;10.30;100.00;;;;;;4985479;28;20136;-70
2023/09/27 03:40:14;;;;;;;21.55;11.55;;;10.30;100.00;;;;;;4985833;28;20078;-70
2023/09/27 03:42:45;;;;;;;14.77;9.77;;;10.30;100.00;;;;;;4975312;28;20053;-70
2023/09/27 03:45:14;;;;;;;14.95;9.18;;;10.20;100.00;;;;;;4987061;28;20121;-70
2023/09/27 03:47:44;;;;;;;14.40;9.52;;;10.20;100.00;;;;;;4975356;28;20069;-70
2023/09/27 03:50:13;;;;;;;13.38;8.80;;;10.10;99.90;;;;;;4985629;28;20058;-70
2023/09/27 03:52:41;;;;;;;13.90;8.50;;;10.10;100.00;;;;;;4974378;28;20430;-70
2023/09/27 03:55:10;;;;;;;18.63;9.05;;;10.00;100.00;;;;;;4986312;28;20050;-70
2023/09/27 03:57:37;;;;;;;19.10;8.65;;;10.00;100.00;;;;;;4992412;28;20046;-70
2023/09/27 04:00:13;;;;;;;18.75;10.68;;;10.00;100.00;;;;;;4969514;28;20089;-70
2023/09/27 04:02:41;;;;;;;23.33;10.75;;;10.00;100.00;;;;;;4983856;28;20061;-70
2023/09/27 04:05:09;;;;;;;26.23;11.05;;;10.00;100.00;;;;;;4985371;28;20160;-70
2023/09/27 04:07:36;;;;;;;23.60;10.90;;;10.00;100.00;;;;;;4968696;28;20052;-70
2023/09/27 04:10:04;;;;;;;21.88;11.07;;;10.00;100.00;;;;;;4969589;28;20046;-70
2023/09/27 04:12:47;;;;;;;18.65;10.75;;;10.00;100.00;;;;;;4990765;28;20070;-70
2023/09/27 04:18:44;;;;;;;21.00;11.30;;;10.00;100.00;;;;;;5000523;28;20134;-73
2023/09/27 04:21:11;;;;;;;24.52;11.90;;;10.00;100.00;;;;;;5003325;28;20086;-74
2023/09/27 04:27:08;;;;;;;20.35;11.32;;;10.00;100.00;;;;;;4991241;23;20049;-74
2023/09/27 04:29:35;;;;;;;23.63;11.57;;;10.00;100.00;;;;;;4984042;28;20053;-74
2023/09/27 04:32:02;;;;;;;22.42;11.48;;;9.90;100.00;;;;;;4985467;28;20042;-74
2023/09/27 04:34:29;;;;;;;20.42;11.65;;;9.90;100.00;;;;;;4983385;28;20806;-74
2023/09/27 04:36:57;;;;;;;20.13;12.00;;;10.00;100.00;;;;;;4975455;28;20050;-71
2023/09/27 04:39:30;;;;;;;19.40;10.73;;;10.00;100.00;;;;;;4978350;28;20073;-71
2023/09/27 04:41:58;;;;;;;26.77;11.82;;;10.00;100.00;;;;;;4983267;28;20415;-71
2023/09/27 04:44:25;;;;;;;50.88;13.02;;;9.90;100.00;;;;;;4978358;28;20058;-70
2023/09/27 04:46:55;;;;;;;33.28;13.38;;;9.90;100.00;;;;;;4980050;28;20142;-70
2023/09/27 04:49:22;;;;;;;44.55;11.27;;;9.90;100.00;;;;;;4983020;28;20057;-70
2023/09/27 04:51:48;;;;;;;47.75;11.32;;;9.90;100.00;;;;;;4973386;28;20054;-71
2023/09/27 04:54:15;;;;;;;20.73;10.73;;;9.90;100.00;;;;;;4986755;28;20754;-73
2023/09/27 04:56:43;;;;;;;23.40;11.20;;;9.90;100.00;;;;;;4988260;28;20046;-73
2023/09/27 04:59:10;;;;;;;18.30;8.95;;;9.90;100.00;;;;;;4987405;28;20054;-76
2023/09/27 05:01:37;;;;;;;31.83;11.18;;;9.90;100.00;;;;;;4990822;28;20050;-76
2023/09/27 05:04:04;;;;;;;19.40;10.55;;;9.90;100.00;;;;;;4987744;28;20046;-73
2023/09/27 05:06:32;;;;;;;21.77;10.25;;;9.90;100.00;;;;;;4971591;28;20057;-72
2023/09/27 05:08:59;;;;;;;23.92;10.25;;;9.80;100.00;;;;;;4970079;28;20050;-71
2023/09/27 05:11:26;;;;;;;29.45;11.23;;;9.80;100.00;;;;;;4967827;28;20058;-72
2023/09/27 05:13:54;;;;;;;24.58;10.43;;;9.80;100.00;;;;;;4969232;28;20121;-72
2023/09/27 05:16:22;;;;;;;22.05;10.90;;;9.80;100.00;;;;;;4998477;28;20631;-72
2023/09/27 05:18:50;;;;;;;18.55;10.35;;;9.80;100.00;;;;;;4971238;28;20057;-71
2023/09/27 05:21:17;;;;;;;25.65;10.00;;;9.80;100.00;;;;;;4981076;28;20061;-72
2023/09/27 05:23:44;;;;;;;19.25;9.70;;;9.80;100.00;;;;;;4979649;28;20117;-73
2023/09/27 05:26:11;;;;;;;16.05;9.57;;;9.80;100.00;;;;;;4995050;28;20105;-72
2023/09/27 05:28:38;;;;;;;19.77;9.35;;;9.70;100.00;;;;;;4977629;28;20073;-72
2023/09/27 05:31:05;;;;;;;14.43;9.20;;;9.80;100.00;;;;;;4990541;28;20064;-71
2023/09/27 05:33:33;;;;;;;23.30;10.65;;;9.80;100.00;;;;;;4984646;28;20049;-71
2023/09/27 05:36:00;;;;;;;22.40;10.02;;;9.80;100.00;;;;;;4970080;28;20050;-71
2023/09/27 05:38:26;;;;;;;30.48;10.40;;;9.70;100.00;;;;;;4986893;28;20046;-71
2023/09/27 05:40:53;;;;;;;20.73;10.57;;;9.70;100.00;;;;;;4973157;28;20145;-71
2023/09/27 05:43:20;;;;;;;26.15;10.30;;;9.80;100.00;;;;;;4986271;28;20831;-71
2023/09/27 05:45:47;;;;;;;19.17;8.80;;;9.80;100.00;;;;;;4985607;28;20108;-71
2023/09/27 05:48:14;;;;;;;17.75;8.40;;;9.80;100.00;;;;;;4969733;28;20101;-71
2023/09/27 05:50:46;;;;;;;18.48;9.95;;;9.80;100.00;;;;;;4985220;28;20062;-71
2023/09/27 05:53:16;;;;;;;36.90;9.52;;;9.90;100.00;;;;;;4987243;28;20053;-71
2023/09/27 05:55:46;;;;;;;17.67;9.80;;;9.90;100.00;;;;;;4971001;28;20658;-71
2023/09/27 05:58:14;;;;;;;16.85;9.35;;;9.90;100.00;;;;;;4968159;28;20231;-71
2023/09/27 06:00:46;;;;;;;24.40;8.95;;;9.90;100.00;;;;;;4986180;28;20099;-71
2023/09/27 06:03:13;;;;;;;15.45;8.57;;;10.00;100.00;;;;;;4990299;23;20738;-72
2023/09/27 06:05:42;;;;;;;19.40;8.75;;;10.00;100.00;;;;;;4967670;28;20046;-71
2023/09/27 06:08:09;;;;;;;16.48;8.73;;;10.10;100.00;;;;;;4974739;28;20049;-71
2023/09/27 06:10:36;;;;;;;16.75;9.02;;;10.10;100.00;;;;;;4967828;28;20050;-70
2023/09/27 06:13:03;;;;;;;15.93;9.00;;;10.20;100.00;;;;;;4978660;28;20828;-71
2023/09/27 06:15:33;;;;;;;18.98;9.85;;;10.30;100.00;;;;;;4984483;28;20426;-71
2023/09/27 06:18:00;;;;;;;13.48;8.75;;;10.50;100.00;;;;;;4985474;28;20050;-71
2023/09/27 06:20:30;;;;;;;17.75;9.13;;;10.60;100.00;;;;;;4985915;28;20152;-71
2023/09/27 06:23:02;;;;;;;17.45;9.10;;;10.70;100.00;;;;;;4985838;28;20140;-71
2023/09/27 06:25:30;;;;;;;16.30;9.10;;;10.90;100.00;;;;;;4981091;28;20533;-71
2023/09/27 06:27:57;;;;;;;17.05;8.82;;;11.10;100.00;;;;;;4984653;28;20042;-71
2023/09/27 06:30:24;;;;;;;12.52;9.13;;;11.30;100.00;;;;;;4984340;28;20054;-70
2023/09/27 06:32:51;;;;;;;15.13;8.50;;;11.50;100.00;;;;;;4984475;28;20073;-70
2023/09/27 06:35:19;;;;;;;15.00;8.48;;;11.70;99.80;;;;;;4985149;28;20738;-73
2023/09/27 06:37:49;;;;;;;23.00;8.57;;;11.90;99.30;;;;;;4969125;28;20042;-73
2023/09/27 06:40:17;;;;;;;24.15;8.68;;;12.00;98.00;;;;;;4969652;28;20124;-73
2023/09/27 06:42:45;;;;;;;41.60;9.00;;;12.20;98.80;;;;;;4986831;28;20737;-73
2023/09/27 06:45:14;;;;;;;27.25;9.23;;;12.40;98.30;;;;;;4985028;28;20137;-73
2023/09/27 06:47:42;;;;;;;62.78;9.77;;;12.60;98.10;;;;;;4984464;28;20620;-72
2023/09/27 06:50:10;;;;;;;38.97;8.73;;;12.90;97.60;;;;;;4985369;28;20061;-72
2023/09/27 06:52:39;;;;;;;30.38;9.25;;;13.10;97.30;;;;;;4969059;28;20046;-71
2023/09/27 06:55:11;;;;;;;23.92;8.07;;;13.40;96.70;;;;;;4980926;28;20054;-71
2023/09/27 06:57:42;;;;;;;29.13;8.65;;;13.70;95.70;;;;;;4984726;28;20854;-71
2023/09/27 07:00:18;;;;;;;24.48;9.00;;;13.90;95.40;;;;;;4968067;28;20078;-71
2023/09/27 07:02:47;;;;;;;44.30;9.63;;;14.20;94.60;;;;;;4983428;28;20112;-71
2023/09/27 07:05:15;;;;;;;33.53;9.13;;;14.40;93.90;;;;;;4985289;28;20054;-71
2023/09/27 07:07:43;;;;;;;30.33;8.60;;;14.70;92.90;;;;;;4975452;28;20450;-72
2023/09/27 07:10:10;;;;;;;38.55;8.70;;;14.90;91.90;;;;;;4983013;28;20077;-72
2023/09/27 07:12:37;;;;;;;57.53;10.93;;;15.20;91.70;;;;;;4993266;28;20111;-71
2023/09/27 07:15:08;;;;;;;71.97;10.73;;;15.50;91.90;;;;;;4989031;28;20054;-71
2023/09/27 07:17:38;;;;;;;54.95;12.27;;;15.70;90.80;;;;;;4985950;28;20050;-71
2023/09/27 07:20:24;;;;;;;34.47;11.60;;;16.00;91.30;;;;;;4968996;28;20070;-71
2023/09/27 07:22:54;;;;;;;19.65;11.93;;;16.40;92.70;;;;;;4989469;28;20050;-71
2023/09/27 07:25:23;;;;;;;34.42;12.02;;;16.80;92.50;;;;;;4963315;28;20053;-71
2023/09/27 07:27:52;;;;;;;44.75;13.35;;;17.00;91.10;;;;;;4986702;28;20376;-71
2023/09/27 07:30:23;;;;;;;31.55;12.73;;;17.40;90.90;;;;;;4970708;28;20090;-71
2023/09/27 07:32:53;;;;;;;23.83;12.88;;;17.80;90.60;;;;;;4987631;28;20050;-72
2023/09/27 07:35:21;;;;;;;27.20;12.27;;;18.20;89.80;;;;;;4985084;28;20100;-71
2023/09/27 07:37:54;;;;;;;21.27;12.60;;;18.40;89.10;;;;;;4968796;28;20054;-72
2023/09/27 07:40:23;;;;;;;35.67;12.93;;;18.60;87.20;;;;;;4967656;28;20138;-72
2023/09/27 07:42:51;;;;;;;17.83;11.88;;;18.70;86.90;;;;;;4967774;28;20113;-72
2023/09/27 07:45:21;;;;;;;22.58;13.40;;;18.80;87.10;;;;;;4984259;28;20050;-71
2023/09/27 07:47:50;;;;;;;24.25;13.60;;;19.00;86.60;;;;;;4985587;28;20078;-72
2023/09/27 07:50:22;;;;;;;24.73;13.85;;;19.20;86.80;;;;;;4984209;28;20086;-72
2023/09/27 07:52:49;;;;;;;23.40;13.02;;;19.40;86.10;;;;;;4984647;28;20054;-71
2023/09/27 07:55:17;;;;;;;28.17;14.05;;;19.60;85.50;;;;;;4967361;28;20082;-71
2023/09/27 07:57:45;;;;;;;22.33;13.32;;;19.80;84.90;;;;;;4986283;28;20283;-72
2023/09/27 08:00:17;;;;;;;35.40;13.55;;;20.10;84.90;;;;;;4991608;28;20054;-71
2023/09/27 08:02:45;;;;;;;22.90;13.32;;;20.20;83.30;;;;;;4968711;28;20046;-72
2023/09/27 08:05:16;;;;;;;20.92;13.18;;;20.30;84.00;;;;;;4968422;28;20054;-71
2023/09/27 08:07:44;;;;;;;21.98;11.65;;;20.70;83.70;;;;;;4984363;28;20629;-71
2023/09/27 08:10:11;;;;;;;18.73;11.80;;;20.90;82.30;;;;;;4983257;28;20128;-71
2023/09/27 08:12:42;;;;;;;17.08;11.98;;;21.10;81.60;;;;;;4961314;28;20078;-71
2023/09/27 08:15:12;;;;;;;18.40;11.23;;;21.30;81.30;;;;;;4982883;28;20050;-72
2023/09/27 08:17:39;;;;;;;23.98;11.15;;;21.30;80.70;;;;;;4958433;28;20062;-71
2023/09/27 08:20:09;;;;;;;19.40;9.98;;;21.40;79.80;;;;;;4984225;28;20054;-71
2023/09/27 08:22:39;;;;;;;20.48;10.35;;;21.50;79.20;;;;;;4977761;28;20060;-71
2023/09/27 08:25:14;;;;;;;29.08;10.95;;;21.50;79.70;;;;;;4980487;28;20495;-71
2023/09/27 08:27:42;;;;;;;21.25;10.13;;;21.50;78.90;;;;;;4980952;28;20052;-71
2023/09/27 08:30:11;;;;;;;21.98;11.38;;;21.40;78.70;;;;;;4984947;28;20050;-71
2023/09/27 08:32:39;;;;;;;20.25;10.77;;;21.30;79.20;;;;;;4987216;28;20046;-72
2023/09/27 08:35:10;;;;;;;16.75;10.75;;;21.20;79.90;;;;;;4958965;28;20049;-72
2023/09/27 08:37:37;;;;;;;19.65;10.68;;;21.10;80.70;;;;;;4964046;28;20069;-71
2023/09/27 08:40:12;;;;;;;19.42;10.35;;;21.00;80.60;;;;;;4982947;28;20046;-71
2023/09/27 08:42:41;;;;;;;13.02;9.63;;;21.00;82.10;;;;;;4966796;28;20124;-72
2023/09/27 08:45:14;;;;;;;17.48;10.20;;;21.00;81.10;;;;;;4983219;28;20581;-71
2023/09/27 08:47:44;;;;;;;15.20;10.00;;;21.00;81.40;;;;;;4980975;28;21375;-74
2023/09/27 08:50:17;;;;;;;20.17;10.07;;;21.10;82.30;;;;;;4983423;28;20053;-71
2023/09/27 08:52:46;;;;;;;13.63;9.35;;;21.30;82.40;;;;;;4982897;28;20050;-73
2023/09/27 08:55:14;;;;;;;12.07;9.27;;;21.40;81.70;;;;;;4965970;28;20631;-72
2023/09/27 08:57:46;;;;;;;17.38;8.80;;;21.70;81.50;;;;;;4979073;28;20097;-71
2023/09/27 09:00:22;;;;;;;21.15;9.40;;;22.00;79.70;;;;;;4979593;28;20510;-70
2023/09/27 09:02:56;;;;;;;28.35;10.25;;;22.20;79.60;;;;;;4980584;28;20057;-72
2023/09/27 09:05:26;;;;;;;;;;;22.40;77.60;;;;;;4980277;28;20054;-71
2023/09/27 09:07:55;;;;;;;19.55;8.02;;;22.50;77.00;;;;;;4963986;28;19925;-72
2023/09/27 09:10:22;;;;;;;17.10;7.82;;;22.60;77.50;;;;;;4988363;23;20042;-70
2023/09/27 09:12:50;;;;;;;22.42;8.30;;;22.90;76.60;;;;;;4980138;28;20055;-70
2023/09/27 09:15:48;;;;;;;16.23;9.95;;;23.40;76.60;;;;;;4983115;28;20965;-71
2023/09/27 09:18:28;;;;;;;10.25;7.45;;;24.00;72.80;;;;;;4950854;28;20038;-70
2023/09/27 09:21:08;;;;;;;13.32;7.85;;;24.50;70.70;;;;;;4982617;28;20058;-70
2023/09/27 09:23:36;;;;;;;12.25;8.43;;;25.10;70.70;;;;;;4964896;28;20054;-71
2023/09/27 09:26:05;;;;;;;11.57;8.10;;;25.50;68.30;;;;;;4968386;28;20128;-71
2023/09/27 09:28:35;;;;;;;12.23;7.25;;;25.80;67.00;;;;;;4968255;28;20084;-71
2023/09/27 09:31:02;;;;;;;21.67;7.93;;;26.10;66.00;;;;;;4986584;28;20046;-70
2023/09/27 09:34:28;;;;;;;22.58;7.63;;;26.20;65.50;;;;;;4992597;28;20108;-71
2023/09/27 09:36:56;;;;;;;22.92;8.02;;;26.10;65.60;;;;;;4992091;28;20714;-70
2023/09/27 09:39:23;;;;;;;33.22;8.93;;;25.60;67.60;;;;;;4973785;28;20140;-70
2023/09/27 09:41:52;;;;;;;31.27;6.85;;;25.40;64.90;;;;;;4988941;28;20049;-71
2023/09/27 09:44:21;;;;;;;14.85;5.80;;;25.50;66.90;;;;;;4971675;28;20050;-71
2023/09/27 09:46:51;;;;;;;11.63;5.22;;;25.70;64.50;;;;;;4988672;28;20046;-71
2023/09/27 09:49:20;;;;;;;12.20;7.13;;;26.10;65.30;;;;;;4987878;28;20482;-71
2023/09/27 09:51:49;;;;;;;16.13;5.95;;;26.40;63.20;;;;;;4988825;28;20050;-71
2023/09/27 09:54:29;;;;;;;13.35;5.90;;;26.60;65.30;;;;;;4989246;28;20058;-71
2023/09/27 09:57:03;;;;;;;23.52;6.85;;;26.90;63.90;;;;;;4972673;28;20054;-71
2023/09/27 09:59:48;;;;;;;17.17;5.70;;;27.00;62.30;;;;;;4972237;28;20074;-71
2023/09/27 10:02:27;;;;;;;9.82;5.78;;;27.30;62.80;;;;;;4986271;28;20053;-72
2023/09/27 10:04:57;;;;;;;10.48;5.35;;;27.40;60.70;;;;;;4986535;28;20273;-71
2023/09/27 10:07:25;;;;;;;5.38;4.35;;;27.50;61.00;;;;;;4989659;28;20575;-72
2023/09/27 10:09:52;;;;;;;10.15;4.30;;;27.60;59.90;;;;;;4987993;28;20050;-71
2023/09/27 10:12:23;;;;;;;6.32;4.35;;;27.70;59.90;;;;;;4969210;28;20157;-72
2023/09/27 10:14:52;;;;;;;9.02;4.68;;;28.00;59.20;;;;;;4986837;28;20085;-81
2023/09/27 10:17:25;;;;;;;14.18;4.30;;;28.20;58.80;;;;;;4990968;28;20561;-72
2023/09/27 10:20:12;;;;;;;14.88;4.38;;;28.40;57.80;;;;;;4988722;28;20408;-71
2023/09/27 10:22:41;;;;;;;12.73;5.22;;;28.60;55.40;;;;;;4973996;28;20157;-71
2023/09/27 10:25:31;;;;;;;9.43;3.95;;;28.70;56.50;;;;;;4970063;28;20058;-73
2023/09/27 10:28:13;;;;;;;13.75;4.57;;;28.80;53.60;;;;;;4993086;28;20369;-75
2023/09/27 10:30:40;;;;;;;5.93;4.07;;;28.70;56.50;;;;;;4981364;28;20046;-77
2023/09/27 10:33:20;;;;;;;11.32;3.97;;;28.90;56.90;;;;;;4989365;28;20078;-73
2023/09/27 10:36:15;;;;;;;9.25;4.07;;;28.90;56.10;;;;;;4986784;28;20447;-72
2023/09/27 10:38:42;;;;;;;9.45;4.05;;;29.10;54.20;;;;;;4981060;28;20043;-72
2023/09/27 10:41:29;;;;;;;10.75;4.40;;;29.10;53.90;;;;;;4982439;28;20061;-72
2023/09/27 10:43:56;;;;;;;6.13;3.78;;;28.80;56.00;;;;;;4971003;28;20053;-72
2023/09/27 10:46:24;;;;;;;7.85;3.42;;;29.10;56.00;;;;;;4991188;28;20081;-72
2023/09/27 10:49:00;;;;;;;8.80;4.15;;;29.60;54.20;;;;;;4989480;28;20151;-72
2023/09/27 10:51:26;;;;;;;4.55;3.80;;;30.00;52.80;;;;;;4980850;28;20058;-72
2023/09/27 10:53:53;;;;;;;26.02;3.97;;;30.30;52.30;;;;;;4973586;28;20054;-69
2023/09/27 10:56:21;;;;;;;7.68;3.83;;;30.60;53.00;;;;;;4970409;28;20050;-70
2023/09/27 10:58:52;;;;;;;29.70;4.28;;;30.90;52.10;;;;;;4982775;28;20046;-70
2023/09/27 11:01:23;;;;;;;10.85;4.05;;;31.20;51.70;;;;;;4969282;28;20078;-71
2023/09/27 11:04:04;;;;;;;6.32;3.88;;;31.50;51.70;;;;;;4984709;28;20104;-71
2023/09/27 11:06:31;;;;;;;10.45;3.85;;;31.70;49.30;;;;;;4983385;28;20054;-71
2023/09/27 11:09:09;;;;;;;18.67;3.80;;;31.40;51.40;;;;;;4970524;28;20093;-71
2023/09/27 11:11:36;;;;;;;19.10;5.63;;;32.00;51.10;;;;;;4985443;28;20054;-71
2023/09/27 11:14:03;;;;;;;10.40;4.10;;;32.50;48.10;;;;;;4982479;28;20043;-73
2023/09/27 11:16:30;;;;;;;18.60;4.40;;;32.10;49.60;;;;;;4984191;28;20462;-71
2023/09/27 11:18:58;;;;;;;12.38;4.90;;;32.90;48.20;;;;;;4971313;28;20054;-71
2023/09/27 11:21:26;;;;;;;29.15;6.25;;;33.10;48.10;;;;;;4969042;28;20081;-71
2023/09/27 11:23:58;;;;;;;10.05;4.88;;;33.40;48.50;;;;;;4984025;28;20134;-71
2023/09/27 11:26:31;;;;;;;28.92;4.53;;;33.90;47.20;;;;;;4987026;28;20487;-71
2023/09/27 11:29:00;;;;;;;6.60;3.65;;;34.60;45.80;;;;;;4972113;28;20120;-70
2023/09/27 11:31:39;;;;;;;7.13;3.92;;;35.10;44.30;;;;;;4984587;28;20058;-73
2023/09/27 11:34:19;;;;;;;10.68;3.63;;;35.10;44.10;;;;;;4975576;28;20039;-71
2023/09/27 11:36:54;;;;;;;10.63;3.45;;;35.40;44.30;;;;;;4982103;28;20375;-72
2023/09/27 11:39:29;;;;;;;7.88;3.08;;;35.70;44.00;;;;;;4982705;28;20104;-71
2023/09/27 11:41:57;;;;;;;;;;;36.40;43.70;;;;;;4980924;28;20492;-71
2023/09/27 11:44:26;;;;;;;4.90;3.22;;;36.70;42.10;;;;;;4982019;28;19932;-71
2023/09/27 11:47:07;;;;;;;6.30;3.38;;;37.60;42.00;;;;;;4960049;28;20060;-71
2023/09/27 11:49:35;;;;;;;187.88;46.67;;;38.20;40.90;;;;;;4965723;28;20042;-71
2023/09/27 11:52:10;;;;;;;53.33;7.20;;;37.60;40.50;;;;;;4981766;28;20042;-70
2023/09/27 11:54:42;;;;;;;8.77;3.88;;;37.40;42.70;;;;;;4983597;28;20050;-74
2023/09/27 11:57:09;;;;;;;4.40;3.33;;;37.60;42.00;;;;;;4963749;28;20900;-72
2023/09/27 11:59:37;;;;;;;124.22;35.40;;;37.90;41.50;;;;;;4984135;28;20050;-72
2023/09/27 12:02:05;;;;;;;21.20;5.72;;;37.30;41.70;;;;;;4982102;28;20046;-72
2023/09/27 12:08:22;;;;;;;29.13;4.90;;;37.10;40.80;;;;;;5002070;28;20553;-76
2023/09/27 12:13:50;;;;;;;11.13;4.30;;;35.80;41.00;;;;;;4993589;23;20049;-71
2023/09/27 12:16:20;;;;;;;6.28;3.58;;;35.20;43.20;;;;;;4986449;28;20045;-72
2023/09/27 12:18:47;;;;;;;5.25;3.10;;;35.40;42.00;;;;;;4986530;28;20756;-72
2023/09/27 12:21:14;;;;;;;29.67;4.00;;;35.10;42.70;;;;;;4981738;28;20041;-72
2023/09/27 12:23:44;;;;;;;19.58;5.47;;;34.80;43.50;;;;;;5008455;23;20057;-71
2023/09/27 12:26:12;;;;;;;52.13;11.38;;;33.70;44.30;;;;;;5001480;28;20136;-71
2023/09/27 12:28:39;;;;;;;8.32;3.50;;;33.60;45.70;;;;;;5004233;28;20143;-72
2023/09/27 12:31:06;;;;;;;6.20;3.20;;;33.70;46.20;;;;;;4997195;28;20586;-71
2023/09/27 12:33:35;;;;;;;6.05;2.50;;;33.50;46.50;;;;;;4998746;28;20709;-71
2023/09/27 12:36:03;;;;;;;6.78;3.22;;;33.40;45.20;;;;;;5005799;28;20115;-74
2023/09/27 12:38:30;;;;;;;14.70;5.75;;;33.10;45.90;;;;;;5001892;28;20054;-76
2023/09/27 12:41:00;;;;;;;5.95;2.97;;;32.70;43.00;;;;;;5002812;28;20771;-76
2023/09/27 12:43:27;;;;;;;9.10;3.10;;;32.10;44.60;;;;;;5003170;28;20865;-76
2023/09/27 12:45:54;;;;;;;8.13;3.47;;;31.30;45.00;;;;;;5004168;28;20058;-76
2023/09/27 12:48:21;;;;;;;34.50;4.25;;;30.80;46.00;;;;;;5009525;28;20387;-74
2023/09/27 12:50:48;;;;;;;7.95;3.15;;;30.20;48.20;;;;;;4997452;28;20057;-76
2023/09/27 12:53:16;;;;;;;587.40;137.43;;;29.80;51.40;;;;;;5000859;28;20494;-77
2023/09/27 12:55:43;;;;;;;25.77;9.63;;;30.00;50.40;;;;;;5004118;28;20597;-74
2023/09/27 12:58:12;;;;;;;174.23;45.97;;;30.00;48.50;;;;;;5010027;28;20069;-74